sensor_id;sensor_type;location;lat;lon;timestamp;temperature;humidity
5980;DHT22;3016;50.308;8.258;2023-02-16T00:02:14;-2.30;27.10
5980;DHT22;3016;50.308;8.258;2023-02-16T00:05:30;-2.30;27.80
5980;DHT22;3016;50.308;8.258;2023-02-16T00:08:33;-2.30;28.60
5980;DHT22;3016;50.308;8.258;2023-02-16T00:14:46;-2.30;30.00
5980;DHT22;3016;50.308;8.258;2023-02-16T00:17:47;-2.30;29.90
5980;DHT22;3016;50.308;8.258;2023-02-16T00:20:48;-2.40;30.10
5980;DHT22;3016;50.308;8.258;2023-02-16T00:23:50;-2.30;31.30
5980;DHT22;3016;50.308;8.258;2023-02-16T00:26:51;-2.30;32.10
5980;DHT22;3016;50.308;8.258;2023-02-16T00:29:52;-2.40;32.00
5980;DHT22;3016;50.308;8.258;2023-02-16T00:32:54;-2.40;33.50
5980;DHT22;3016;50.308;8.258;2023-02-16T00:35:55;-2.30;35.70
5980;DHT22;3016;50.308;8.258;2023-02-16T00:38:56;-2.30;38.00
5980;DHT22;3016;50.308;8.258;2023-02-16T00:42:00;-2.20;39.50
5980;DHT22;3016;50.308;8.258;2023-02-16T00:45:17;-2.10;41.60
5980;DHT22;3016;50.308;8.258;2023-02-16T00:48:22;-2.10;43.20
5980;DHT22;3016;50.308;8.258;2023-02-16T00:51:23;-2.00;44.70
5980;DHT22;3016;50.308;8.258;2023-02-16T00:54:24;-1.90;47.70
5980;DHT22;3016;50.308;8.258;2023-02-16T00:57:26;-1.70;51.00
5980;DHT22;3016;50.308;8.258;2023-02-16T01:00:46;-1.50;55.10
5980;DHT22;3016;50.308;8.258;2023-02-16T01:03:49;-1.30;56.70
5980;DHT22;3016;50.308;8.258;2023-02-16T01:06:50;-1.20;57.40
5980;DHT22;3016;50.308;8.258;2023-02-16T01:10:10;-1.10;57.80
5980;DHT22;3016;50.308;8.258;2023-02-16T01:13:34;-1.00;58.70
5980;DHT22;3016;50.308;8.258;2023-02-16T01:17:04;-1.00;58.40
5980;DHT22;3016;50.308;8.258;2023-02-16T01:20:23;-1.00;58.60
5980;DHT22;3016;50.308;8.258;2023-02-16T01:23:25;-1.00;58.70
5980;DHT22;3016;50.308;8.258;2023-02-16T01:26:26;-1.00;59.00
5980;DHT22;3016;50.308;8.258;2023-02-16T01:29:27;-1.00;59.40
5980;DHT22;3016;50.308;8.258;2023-02-16T01:32:28;-1.00;59.50
5980;DHT22;3016;50.308;8.258;2023-02-16T01:35:32;-1.00;59.60
5980;DHT22;3016;50.308;8.258;2023-02-16T01:38:33;-1.00;59.30
5980;DHT22;3016;50.308;8.258;2023-02-16T01:41:42;-1.00;59.50
5980;DHT22;3016;50.308;8.258;2023-02-16T01:45:10;-1.00;59.70
5980;DHT22;3016;50.308;8.258;2023-02-16T01:48:34;-1.00;60.50
5980;DHT22;3016;50.308;8.258;2023-02-16T01:58:42;-0.80;62.00
5980;DHT22;3016;50.308;8.258;2023-02-16T02:02:01;-0.80;62.30
5980;DHT22;3016;50.308;8.258;2023-02-16T02:08:44;-0.70;62.40
5980;DHT22;3016;50.308;8.258;2023-02-16T02:12:39;-0.70;61.90
5980;DHT22;3016;50.308;8.258;2023-02-16T02:15:48;-0.70;62.20
5980;DHT22;3016;50.308;8.258;2023-02-16T02:18:49;-0.70;62.40
5980;DHT22;3016;50.308;8.258;2023-02-16T02:22:25;-0.60;62.60
5980;DHT22;3016;50.308;8.258;2023-02-16T02:26:39;-0.60;63.40
5980;DHT22;3016;50.308;8.258;2023-02-16T02:33:53;-0.50;64.70
5980;DHT22;3016;50.308;8.258;2023-02-16T02:37:24;-0.50;65.10
5980;DHT22;3016;50.308;8.258;2023-02-16T02:44:24;-0.50;66.00
5980;DHT22;3016;50.308;8.258;2023-02-16T02:47:43;-0.40;66.40
5980;DHT22;3016;50.308;8.258;2023-02-16T02:54:21;-0.50;67.10
5980;DHT22;3016;50.308;8.258;2023-02-16T02:57:54;-0.50;67.10
5980;DHT22;3016;50.308;8.258;2023-02-16T03:01:17;-0.50;68.10
5980;DHT22;3016;50.308;8.258;2023-02-16T03:04:23;-0.40;68.80
5980;DHT22;3016;50.308;8.258;2023-02-16T03:07:27;-0.40;69.50
5980;DHT22;3016;50.308;8.258;2023-02-16T03:11:03;-0.40;69.70
5980;DHT22;3016;50.308;8.258;2023-02-16T03:14:33;-0.40;69.80
5980;DHT22;3016;50.308;8.258;2023-02-16T03:17:37;-0.40;70.50
5980;DHT22;3016;50.308;8.258;2023-02-16T03:20:58;-0.40;70.60
5980;DHT22;3016;50.308;8.258;2023-02-16T03:24:30;-0.40;70.80
5980;DHT22;3016;50.308;8.258;2023-02-16T03:27:50;-0.40;71.30
5980;DHT22;3016;50.308;8.258;2023-02-16T03:31:15;-0.40;71.10
5980;DHT22;3016;50.308;8.258;2023-02-16T03:34:20;-0.40;71.60
5980;DHT22;3016;50.308;8.258;2023-02-16T03:37:21;-0.50;70.80
5980;DHT22;3016;50.308;8.258;2023-02-16T03:40:25;-0.50;70.30
5980;DHT22;3016;50.308;8.258;2023-02-16T03:43:47;-0.60;70.10
5980;DHT22;3016;50.308;8.258;2023-02-16T03:46:49;-0.60;71.10
5980;DHT22;3016;50.308;8.258;2023-02-16T03:49:50;-0.70;70.40
5980;DHT22;3016;50.308;8.258;2023-02-16T03:52:53;-0.70;70.50
5980;DHT22;3016;50.308;8.258;2023-02-16T03:56:06;-0.80;70.50
5980;DHT22;3016;50.308;8.258;2023-02-16T03:59:10;-0.80;70.50
5980;DHT22;3016;50.308;8.258;2023-02-16T04:02:11;-0.80;70.00
5980;DHT22;3016;50.308;8.258;2023-02-16T04:05:12;-0.90;69.80
5980;DHT22;3016;50.308;8.258;2023-02-16T04:08:13;-0.90;69.90
5980;DHT22;3016;50.308;8.258;2023-02-16T04:11:15;-1.00;69.80
5980;DHT22;3016;50.308;8.258;2023-02-16T04:14:35;-1.00;69.60
5980;DHT22;3016;50.308;8.258;2023-02-16T04:17:36;-1.00;69.90
5980;DHT22;3016;50.308;8.258;2023-02-16T04:20:38;-1.00;69.90
5980;DHT22;3016;50.308;8.258;2023-02-16T04:23:39;-1.10;69.40
5980;DHT22;3016;50.308;8.258;2023-02-16T04:26:41;-1.10;69.40
5980;DHT22;3016;50.308;8.258;2023-02-16T04:29:42;-1.10;69.60
5980;DHT22;3016;50.308;8.258;2023-02-16T04:32:44;-1.10;69.50
5980;DHT22;3016;50.308;8.258;2023-02-16T04:35:45;-1.10;69.40
5980;DHT22;3016;50.308;8.258;2023-02-16T04:38:46;-1.10;69.50
5980;DHT22;3016;50.308;8.258;2023-02-16T04:41:47;-1.10;69.50
5980;DHT22;3016;50.308;8.258;2023-02-16T04:44:48;-1.10;69.20
5980;DHT22;3016;50.308;8.258;2023-02-16T04:47:50;-1.10;68.50
5980;DHT22;3016;50.308;8.258;2023-02-16T04:50:51;-1.10;68.10
5980;DHT22;3016;50.308;8.258;2023-02-16T04:53:52;-1.20;67.10
5980;DHT22;3016;50.308;8.258;2023-02-16T04:56:54;-1.20;67.00
5980;DHT22;3016;50.308;8.258;2023-02-16T04:59:55;-1.20;66.40
5980;DHT22;3016;50.308;8.258;2023-02-16T05:03:00;-1.30;65.80
5980;DHT22;3016;50.308;8.258;2023-02-16T05:06:08;-1.30;65.70
5980;DHT22;3016;50.308;8.258;2023-02-16T05:09:10;-1.30;65.80
5980;DHT22;3016;50.308;8.258;2023-02-16T05:12:11;-1.30;65.60
5980;DHT22;3016;50.308;8.258;2023-02-16T05:15:30;-1.30;65.50
5980;DHT22;3016;50.308;8.258;2023-02-16T05:18:32;-1.30;65.00
5980;DHT22;3016;50.308;8.258;2023-02-16T05:21:34;-1.40;64.30
5980;DHT22;3016;50.308;8.258;2023-02-16T05:24:36;-1.40;64.20
5980;DHT22;3016;50.308;8.258;2023-02-16T05:27:37;-1.40;64.00
5980;DHT22;3016;50.308;8.258;2023-02-16T05:30:39;-1.50;63.80
5980;DHT22;3016;50.308;8.258;2023-02-16T05:33:40;-1.50;63.70
5980;DHT22;3016;50.308;8.258;2023-02-16T05:36:41;-1.60;63.30
5980;DHT22;3016;50.308;8.258;2023-02-16T05:39:51;-1.60;63.10
5980;DHT22;3016;50.308;8.258;2023-02-16T05:42:59;-1.60;63.30
5980;DHT22;3016;50.308;8.258;2023-02-16T05:46:06;-1.60;63.70
5980;DHT22;3016;50.308;8.258;2023-02-16T05:49:08;-1.70;62.80
5980;DHT22;3016;50.308;8.258;2023-02-16T05:52:10;-1.70;62.80
5980;DHT22;3016;50.308;8.258;2023-02-16T05:55:12;-1.70;63.00
5980;DHT22;3016;50.308;8.258;2023-02-16T05:58:16;-1.70;64.20
5980;DHT22;3016;50.308;8.258;2023-02-16T06:01:18;-1.70;64.90
5980;DHT22;3016;50.308;8.258;2023-02-16T06:04:21;-1.60;64.90
5980;DHT22;3016;50.308;8.258;2023-02-16T06:07:24;-1.70;65.20
5980;DHT22;3016;50.308;8.258;2023-02-16T06:10:26;-1.60;65.30
5980;DHT22;3016;50.308;8.258;2023-02-16T06:13:27;-1.60;66.00
5980;DHT22;3016;50.308;8.258;2023-02-16T08:45:19;0.70;53.60
5980;DHT22;3016;50.308;8.258;2023-02-16T08:48:21;1.10;53.60
5980;DHT22;3016;50.308;8.258;2023-02-16T08:51:22;1.30;49.70
5980;DHT22;3016;50.308;8.258;2023-02-16T08:54:27;1.50;47.20
5980;DHT22;3016;50.308;8.258;2023-02-16T08:57:33;1.70;43.60
5980;DHT22;3016;50.308;8.258;2023-02-16T09:00:34;1.80;36.20
5980;DHT22;3016;50.308;8.258;2023-02-16T09:03:36;2.00;29.50
5980;DHT22;3016;50.308;8.258;2023-02-16T09:06:39;2.20;25.00
5980;DHT22;3016;50.308;8.258;2023-02-16T09:09:42;2.30;17.70
5980;DHT22;3016;50.308;8.258;2023-02-16T09:12:48;2.50;11.70
5980;DHT22;3016;50.308;8.258;2023-02-16T09:15:49;2.60;6.90
5980;DHT22;3016;50.308;8.258;2023-02-16T09:18:50;2.70;1.00
5980;DHT22;3016;50.308;8.258;2023-02-16T09:21:52;2.90;1.00
5980;DHT22;3016;50.308;8.258;2023-02-16T09:25:01;3.10;1.00
5980;DHT22;3016;50.308;8.258;2023-02-16T09:28:04;3.20;1.00
5980;DHT22;3016;50.308;8.258;2023-02-16T09:31:12;3.30;1.00
5980;DHT22;3016;50.308;8.258;2023-02-16T09:34:20;3.60;1.00
5980;DHT22;3016;50.308;8.258;2023-02-16T09:37:22;3.80;1.00
5980;DHT22;3016;50.308;8.258;2023-02-16T09:40:24;4.00;1.00
5980;DHT22;3016;50.308;8.258;2023-02-16T09:43:38;4.30;1.00
5980;DHT22;3016;50.308;8.258;2023-02-16T09:46:46;4.50;1.00
5980;DHT22;3016;50.308;8.258;2023-02-16T10:02:41;4.80;1.00
5980;DHT22;3016;50.308;8.258;2023-02-16T12:33:22;9.00;1.00
5980;DHT22;3016;50.308;8.258;2023-02-16T12:37:28;8.70;1.00
5980;DHT22;3016;50.308;8.258;2023-02-16T12:46:52;8.60;1.00
5980;DHT22;3016;50.308;8.258;2023-02-16T12:50:19;8.70;1.00
5980;DHT22;3016;50.308;8.258;2023-02-16T12:53:37;8.70;1.00
5980;DHT22;3016;50.308;8.258;2023-02-16T12:57:12;8.90;1.00
5980;DHT22;3016;50.308;8.258;2023-02-16T13:00:30;8.90;1.00
5980;DHT22;3016;50.308;8.258;2023-02-16T13:03:38;8.80;1.00
5980;DHT22;3016;50.308;8.258;2023-02-16T13:10:40;8.60;1.00
5980;DHT22;3016;50.308;8.258;2023-02-16T13:13:51;8.50;1.00
5980;DHT22;3016;50.308;8.258;2023-02-16T13:17:07;8.20;1.00
5980;DHT22;3016;50.308;8.258;2023-02-16T13:20:16;8.00;1.00
5980;DHT22;3016;50.308;8.258;2023-02-16T13:29:50;7.70;1.00
5980;DHT22;3016;50.308;8.258;2023-02-16T13:33:25;7.70;1.00
5980;DHT22;3016;50.308;8.258;2023-02-16T13:37:02;7.60;1.00
5980;DHT22;3016;50.308;8.258;2023-02-16T13:40:22;7.60;1.00
5980;DHT22;3016;50.308;8.258;2023-02-16T13:44:09;7.60;1.00
5980;DHT22;3016;50.308;8.258;2023-02-16T13:47:25;7.50;1.00
5980;DHT22;3016;50.308;8.258;2023-02-16T13:50:32;7.50;1.00
5980;DHT22;3016;50.308;8.258;2023-02-16T13:53:36;7.40;1.00
5980;DHT22;3016;50.308;8.258;2023-02-16T13:56:39;7.30;1.00
5980;DHT22;3016;50.308;8.258;2023-02-16T13:59:55;7.40;1.00
5980;DHT22;3016;50.308;8.258;2023-02-16T14:03:11;7.40;1.00
5980;DHT22;3016;50.308;8.258;2023-02-16T14:12:38;7.80;1.00
5980;DHT22;3016;50.308;8.258;2023-02-16T14:15:49;7.90;1.00
5980;DHT22;3016;50.308;8.258;2023-02-16T14:19:23;7.90;1.00
5980;DHT22;3016;50.308;8.258;2023-02-16T14:25:42;8.00;1.00
5980;DHT22;3016;50.308;8.258;2023-02-16T14:29:15;8.00;1.00
5980;DHT22;3016;50.308;8.258;2023-02-16T14:32:28;8.10;1.00
5980;DHT22;3016;50.308;8.258;2023-02-16T14:35:39;8.10;1.00
5980;DHT22;3016;50.308;8.258;2023-02-16T14:38:44;8.10;1.00
5980;DHT22;3016;50.308;8.258;2023-02-16T14:41:46;8.10;1.00
5980;DHT22;3016;50.308;8.258;2023-02-16T14:45:07;8.10;1.00
5980;DHT22;3016;50.308;8.258;2023-02-16T15:06:24;8.00;1.00
5980;DHT22;3016;50.308;8.258;2023-02-16T15:09:31;7.90;1.00
5980;DHT22;3016;50.308;8.258;2023-02-16T15:12:33;7.80;1.00
5980;DHT22;3016;50.308;8.258;2023-02-16T15:15:40;7.80;1.00
5980;DHT22;3016;50.308;8.258;2023-02-16T15:18:47;7.80;1.00
5980;DHT22;3016;50.308;8.258;2023-02-16T15:22:15;7.70;1.00
5980;DHT22;3016;50.308;8.258;2023-02-16T15:25:38;7.60;1.00
5980;DHT22;3016;50.308;8.258;2023-02-16T15:28:40;7.60;1.00
5980;DHT22;3016;50.308;8.258;2023-02-16T15:31:41;7.50;1.00
5980;DHT22;3016;50.308;8.258;2023-02-16T15:34:46;7.40;1.00
5980;DHT22;3016;50.308;8.258;2023-02-16T15:37:47;7.40;1.00
5980;DHT22;3016;50.308;8.258;2023-02-16T15:40:52;7.40;1.00
5980;DHT22;3016;50.308;8.258;2023-02-16T15:43:55;7.40;1.00
5980;DHT22;3016;50.308;8.258;2023-02-16T15:50:11;7.30;1.00
5980;DHT22;3016;50.308;8.258;2023-02-16T15:53:14;7.30;1.00
5980;DHT22;3016;50.308;8.258;2023-02-16T15:56:38;7.30;1.00
5980;DHT22;3016;50.308;8.258;2023-02-16T15:59:45;7.30;1.00
5980;DHT22;3016;50.308;8.258;2023-02-16T16:02:50;7.30;1.00
5980;DHT22;3016;50.308;8.258;2023-02-16T16:06:03;7.30;1.00
5980;DHT22;3016;50.308;8.258;2023-02-16T16:09:22;7.30;1.00
5980;DHT22;3016;50.308;8.258;2023-02-16T16:12:28;7.20;1.00
5980;DHT22;3016;50.308;8.258;2023-02-16T16:15:30;7.10;1.00
5980;DHT22;3016;50.308;8.258;2023-02-16T16:18:47;7.00;1.00
5980;DHT22;3016;50.308;8.258;2023-02-16T16:21:54;7.00;1.00
5980;DHT22;3016;50.308;8.258;2023-02-16T16:24:55;7.00;1.00
5980;DHT22;3016;50.308;8.258;2023-02-16T16:27:58;6.90;1.00
5980;DHT22;3016;50.308;8.258;2023-02-16T16:31:10;6.90;1.00
5980;DHT22;3016;50.308;8.258;2023-02-16T16:34:30;6.90;1.00
5980;DHT22;3016;50.308;8.258;2023-02-16T16:37:35;6.80;1.00
5980;DHT22;3016;50.308;8.258;2023-02-16T16:40:36;6.70;1.00
5980;DHT22;3016;50.308;8.258;2023-02-16T16:43:52;6.60;1.00
5980;DHT22;3016;50.308;8.258;2023-02-16T16:46:54;6.50;1.00
5980;DHT22;3016;50.308;8.258;2023-02-16T16:56:39;6.10;1.00
5980;DHT22;3016;50.308;8.258;2023-02-16T16:59:41;6.10;1.00
5980;DHT22;3016;50.308;8.258;2023-02-16T17:02:42;6.00;1.00
5980;DHT22;3016;50.308;8.258;2023-02-16T17:05:44;5.90;1.00
5980;DHT22;3016;50.308;8.258;2023-02-16T17:08:45;5.80;1.00
5980;DHT22;3016;50.308;8.258;2023-02-16T17:11:46;5.70;1.00
5980;DHT22;3016;50.308;8.258;2023-02-16T17:14:53;5.70;1.00
5980;DHT22;3016;50.308;8.258;2023-02-16T17:17:55;5.60;1.00
5980;DHT22;3016;50.308;8.258;2023-02-16T17:20:56;5.50;1.00
5980;DHT22;3016;50.308;8.258;2023-02-16T17:23:57;5.40;1.00
5980;DHT22;3016;50.308;8.258;2023-02-16T17:26:58;5.30;1.00
5980;DHT22;3016;50.308;8.258;2023-02-16T17:29:59;5.30;1.00
5980;DHT22;3016;50.308;8.258;2023-02-16T17:33:00;5.20;1.00
5980;DHT22;3016;50.308;8.258;2023-02-16T17:36:01;5.10;1.00
5980;DHT22;3016;50.308;8.258;2023-02-16T17:39:06;5.00;1.00
5980;DHT22;3016;50.308;8.258;2023-02-16T17:42:11;4.90;1.00
5980;DHT22;3016;50.308;8.258;2023-02-16T17:45:18;4.80;1.00
5980;DHT22;3016;50.308;8.258;2023-02-16T17:48:23;4.80;1.00
5980;DHT22;3016;50.308;8.258;2023-02-16T17:51:26;4.80;1.00
5980;DHT22;3016;50.308;8.258;2023-02-16T17:54:29;4.80;1.00
5980;DHT22;3016;50.308;8.258;2023-02-16T17:57:30;4.70;1.00
5980;DHT22;3016;50.308;8.258;2023-02-16T18:00:31;4.70;1.00
5980;DHT22;3016;50.308;8.258;2023-02-16T18:03:32;4.70;1.00
5980;DHT22;3016;50.308;8.258;2023-02-16T18:06:33;4.60;1.00
5980;DHT22;3016;50.308;8.258;2023-02-16T18:09:34;4.60;1.00
5980;DHT22;3016;50.308;8.258;2023-02-16T18:12:34;4.50;1.00
5980;DHT22;3016;50.308;8.258;2023-02-16T18:15:35;4.40;1.00
5980;DHT22;3016;50.308;8.258;2023-02-16T18:18:36;4.40;1.00
5980;DHT22;3016;50.308;8.258;2023-02-16T18:21:38;4.30;1.00
5980;DHT22;3016;50.308;8.258;2023-02-16T18:24:39;4.20;1.00
5980;DHT22;3016;50.308;8.258;2023-02-16T18:27:41;4.10;1.70
5980;DHT22;3016;50.308;8.258;2023-02-16T18:30:48;4.00;3.40
5980;DHT22;3016;50.308;8.258;2023-02-16T18:33:50;3.90;5.90
5980;DHT22;3016;50.308;8.258;2023-02-16T18:37:00;3.90;7.50
5980;DHT22;3016;50.308;8.258;2023-02-16T18:40:18;3.90;10.30
5980;DHT22;3016;50.308;8.258;2023-02-16T18:46:30;3.90;13.80
5980;DHT22;3016;50.308;8.258;2023-02-16T18:52:41;4.00;16.50
5980;DHT22;3016;50.308;8.258;2023-02-16T18:55:42;4.00;17.30
5980;DHT22;3016;50.308;8.258;2023-02-16T18:58:45;4.00;18.00
5980;DHT22;3016;50.308;8.258;2023-02-16T19:02:04;4.10;17.80
5980;DHT22;3016;50.308;8.258;2023-02-16T19:05:15;4.10;18.00
5980;DHT22;3016;50.308;8.258;2023-02-16T19:08:17;4.10;18.60
5980;DHT22;3016;50.308;8.258;2023-02-16T19:50:04;4.50;22.20
5980;DHT22;3016;50.308;8.258;2023-02-16T19:53:05;4.50;22.10
5980;DHT22;3016;50.308;8.258;2023-02-16T20:02:31;4.50;20.00
5980;DHT22;3016;50.308;8.258;2023-02-16T20:05:32;4.40;20.40
5980;DHT22;3016;50.308;8.258;2023-02-16T20:11:46;4.40;20.80
5980;DHT22;3016;50.308;8.258;2023-02-16T20:15:09;4.40;20.40
5980;DHT22;3016;50.308;8.258;2023-02-16T20:18:13;4.30;20.60
5980;DHT22;3016;50.308;8.258;2023-02-16T20:21:20;4.30;20.70
5980;DHT22;3016;50.308;8.258;2023-02-16T20:27:35;4.30;22.60
5980;DHT22;3016;50.308;8.258;2023-02-16T20:30:40;4.40;24.00
5980;DHT22;3016;50.308;8.258;2023-02-16T20:33:42;4.40;24.90
5980;DHT22;3016;50.308;8.258;2023-02-16T20:36:43;4.40;25.30
5980;DHT22;3016;50.308;8.258;2023-02-16T20:39:44;4.40;25.40
5980;DHT22;3016;50.308;8.258;2023-02-16T20:42:47;4.40;24.90
5980;DHT22;3016;50.308;8.258;2023-02-16T20:45:48;4.40;25.00
5980;DHT22;3016;50.308;8.258;2023-02-16T20:48:50;4.40;24.40
5980;DHT22;3016;50.308;8.258;2023-02-16T20:51:51;4.50;24.60
5980;DHT22;3016;50.308;8.258;2023-02-16T20:54:52;4.50;24.70
5980;DHT22;3016;50.308;8.258;2023-02-16T20:57:57;4.50;24.90
5980;DHT22;3016;50.308;8.258;2023-02-16T21:00:59;4.50;25.00
5980;DHT22;3016;50.308;8.258;2023-02-16T21:04:08;4.60;24.70
5980;DHT22;3016;50.308;8.258;2023-02-16T21:07:09;4.60;24.50
5980;DHT22;3016;50.308;8.258;2023-02-16T21:10:12;4.60;23.90
5980;DHT22;3016;50.308;8.258;2023-02-16T21:13:14;4.70;24.20
5980;DHT22;3016;50.308;8.258;2023-02-16T21:16:15;4.70;24.00
5980;DHT22;3016;50.308;8.258;2023-02-16T21:19:17;4.70;24.10
5980;DHT22;3016;50.308;8.258;2023-02-16T21:22:18;4.70;24.00
5980;DHT22;3016;50.308;8.258;2023-02-16T21:25:19;4.70;23.70
5980;DHT22;3016;50.308;8.258;2023-02-16T21:28:21;4.80;23.90
5980;DHT22;3016;50.308;8.258;2023-02-16T21:31:24;4.80;23.70
5980;DHT22;3016;50.308;8.258;2023-02-16T21:34:28;4.80;23.50
5980;DHT22;3016;50.308;8.258;2023-02-16T21:37:36;4.80;23.70
5980;DHT22;3016;50.308;8.258;2023-02-16T21:40:38;4.80;24.00
5980;DHT22;3016;50.308;8.258;2023-02-16T21:47:04;4.90;24.50
5980;DHT22;3016;50.308;8.258;2023-02-16T21:50:24;4.90;24.80
5980;DHT22;3016;50.308;8.258;2023-02-16T21:53:25;5.00;24.50
5980;DHT22;3016;50.308;8.258;2023-02-16T22:18:40;5.10;25.00
5980;DHT22;3016;50.308;8.258;2023-02-16T22:24:51;5.30;27.00
5980;DHT22;3016;50.308;8.258;2023-02-16T23:48:47;5.60;59.20
5980;DHT22;3016;50.308;8.258;2023-02-16T23:51:48;5.60;60.20
5980;DHT22;3016;50.308;8.258;2023-02-16T23:54:49;5.60;61.10
5980;DHT22;3016;50.308;8.258;2023-02-16T23:57:50;5.60;62.40
